オスロ の空港の天気 - METARとTAF

オスロ空港 ( ENGM / OSL ) - ノルウェー アーケシュフース県オスロ
飛行場実況気象(Metar)
観測時間12/17 01:20 CET (12/17 00:20 UTC)
風向・風速北 2m/s
視程10km以上
天気現象
なし
気温-11℃
湿度92%
気圧1011hPa
METARENGM 170020Z 36003KT 330V030 CAVOK M11/M12 Q1011
過去の天気等 Google飛行場航空写真 Wunderground天気予報

過去48時間のMETAR

飛行場予報(TAF)
発表時間: -
17日16時 CET から 確率 30% で
視程800m
天気現象氷霧
全天を覆う雲 鉛直視程 60m
TAF ENGM 1700/1724 36005KT CAVOK
PROB30 1715/1724 0800 FZFG VV002